createdAt,value
2022-09-28T00:02:13.449Z,58.89
2022-09-28T00:04:40.370Z,58.87
2022-09-28T00:07:07.375Z,59.39
2022-09-28T00:09:34.200Z,59.00
2022-09-28T00:12:01.258Z,58.48
2022-09-28T00:14:28.327Z,58.75
2022-09-28T00:16:55.343Z,59.07
2022-09-28T00:19:22.142Z,58.88
2022-09-28T00:21:49.170Z,58.86
2022-09-28T00:24:16.099Z,59.24
2022-09-28T00:26:48.441Z,58.81
2022-09-28T00:29:20.049Z,59.16
2022-09-28T00:31:47.242Z,59.08
2022-09-28T00:34:14.178Z,58.95
2022-09-28T00:36:43.730Z,59.30
2022-09-28T00:39:10.591Z,58.82
2022-09-28T00:41:37.526Z,59.12
2022-09-28T00:44:22.762Z,59.63
2022-09-28T00:46:53.774Z,59.06
2022-09-28T00:49:33.382Z,59.28
2022-09-28T00:52:00.233Z,59.05
2022-09-28T00:54:27.260Z,59.40
2022-09-28T00:56:54.062Z,59.39
2022-09-28T00:59:20.804Z,59.27
2022-09-28T01:01:48.616Z,58.88
2022-09-28T01:04:15.413Z,59.30
2022-09-28T01:06:42.166Z,59.28
2022-09-28T01:09:09.158Z,58.97
2022-09-28T01:11:36.997Z,59.16
2022-09-28T01:14:04.369Z,59.23
2022-09-28T01:16:56.337Z,59.12
2022-09-28T01:19:37.862Z,58.87
2022-09-28T01:22:27.753Z,58.91
2022-09-28T01:25:07.939Z,59.20
2022-09-28T01:27:59.781Z,59.32
2022-09-28T01:30:26.561Z,59.37
2022-09-28T01:33:19.352Z,59.34
2022-09-28T01:36:00.357Z,59.85
2022-09-28T01:38:30.903Z,59.79
2022-09-28T01:40:58.575Z,59.79
2022-09-28T01:43:27.097Z,59.84
2022-09-28T01:45:54.077Z,59.47
2022-09-28T01:48:27.226Z,59.72
2022-09-28T01:50:55.226Z,59.20
2022-09-28T01:53:40.389Z,59.50
2022-09-28T01:56:10.919Z,59.76
2022-09-28T01:58:45.521Z,59.59
2022-09-28T02:01:16.625Z,59.49
2022-09-28T02:03:48.864Z,59.48
2022-09-28T02:06:18.456Z,59.34
2022-09-28T02:08:57.146Z,59.29
2022-09-28T02:11:23.913Z,59.01
2022-09-28T02:13:58.761Z,59.02
2022-09-28T02:16:49.101Z,59.04
2022-09-28T02:19:18.181Z,59.12
2022-09-28T02:22:04.943Z,59.58
2022-09-28T02:24:39.791Z,59.83
2022-09-28T02:27:20.784Z,59.88
2022-09-28T02:29:48.823Z,60.01
2022-09-28T02:32:16.020Z,59.80
2022-09-28T02:34:42.803Z,59.41
2022-09-28T02:37:09.828Z,59.57
2022-09-28T02:39:36.605Z,59.56
2022-09-28T02:42:12.007Z,59.74
2022-09-28T02:45:10.193Z,59.25
2022-09-28T02:48:04.882Z,59.55
2022-09-28T02:50:51.788Z,59.59
2022-09-28T02:53:37.235Z,59.65
2022-09-28T02:56:26.242Z,59.46
2022-09-28T02:59:31.044Z,59.67
2022-09-28T03:02:16.943Z,59.20
2022-09-28T03:05:17.851Z,59.80
2022-09-28T03:08:03.950Z,59.65
2022-09-28T03:10:35.530Z,59.19
2022-09-28T03:13:02.520Z,59.64
2022-09-28T03:15:30.833Z,59.59
2022-09-28T03:17:58.004Z,60.02
2022-09-28T03:20:25.960Z,59.73
2022-09-28T03:23:19.711Z,59.89
2022-09-28T03:25:39.850Z,59.73
2022-09-28T03:28:06.632Z,59.67
2022-09-28T03:30:33.538Z,59.75
2022-09-28T03:33:00.850Z,59.53
2022-09-28T03:35:27.638Z,59.58
2022-09-28T03:37:56.082Z,59.65
2022-09-28T03:40:23.289Z,59.77
2022-09-28T03:42:50.098Z,59.56
2022-09-28T03:45:16.974Z,59.59
2022-09-28T03:47:47.178Z,59.78
2022-09-28T03:50:14.304Z,59.77
2022-09-28T03:52:41.294Z,59.63
2022-09-28T03:55:08.835Z,59.56
2022-09-28T03:57:35.566Z,59.90
2022-09-28T04:00:03.666Z,59.62
2022-09-28T04:02:30.903Z,59.30
2022-09-28T04:04:57.782Z,59.62
2022-09-28T04:07:26.922Z,59.25
2022-09-28T04:09:57.336Z,59.38
2022-09-28T04:12:24.150Z,59.46
2022-09-28T04:14:51.012Z,59.47
2022-09-28T04:17:18.018Z,59.73
2022-09-28T04:19:44.859Z,59.74
2022-09-28T04:22:11.658Z,59.52
2022-09-28T04:24:39.190Z,60.04
2022-09-28T04:27:24.546Z,59.92
2022-09-28T04:29:51.599Z,59.35
2022-09-28T04:32:18.368Z,59.44
2022-09-28T04:34:45.214Z,59.65
2022-09-28T04:37:12.259Z,59.29
2022-09-28T04:39:42.264Z,59.65
2022-09-28T04:42:12.101Z,59.47
2022-09-28T04:44:39.158Z,59.06
2022-09-28T04:47:05.930Z,59.68
2022-09-28T04:49:35.338Z,59.75
2022-09-28T04:52:02.454Z,59.69
2022-09-28T04:54:29.297Z,59.98
2022-09-28T04:56:56.114Z,59.75
2022-09-28T04:59:23.423Z,59.91
2022-09-28T05:01:50.229Z,59.79
2022-09-28T05:04:17.407Z,59.63
2022-09-28T05:06:45.283Z,60.31
2022-09-28T05:09:12.024Z,60.05
2022-09-28T05:11:38.784Z,59.58
2022-09-28T05:14:06.001Z,59.42
2022-09-28T05:16:33.948Z,59.51
2022-09-28T05:19:00.904Z,59.10
2022-09-28T05:21:29.382Z,59.23
2022-09-28T05:23:58.255Z,59.29
2022-09-28T05:26:25.091Z,59.01
2022-09-28T05:28:52.140Z,59.10
2022-09-28T05:31:18.976Z,59.16
2022-09-28T05:33:45.832Z,59.26
2022-09-28T05:36:12.901Z,59.08
2022-09-28T05:38:39.753Z,59.38
2022-09-28T05:41:07.046Z,59.07
2022-09-28T05:43:34.237Z,59.03
2022-09-28T05:46:01.115Z,58.84
2022-09-28T05:48:28.444Z,58.96
2022-09-28T05:50:55.600Z,58.92
2022-09-28T05:53:22.549Z,59.00
2022-09-28T05:55:49.420Z,59.09
2022-09-28T05:58:16.568Z,59.12
2022-09-28T06:00:43.509Z,59.14
2022-09-28T06:03:13.913Z,58.91
2022-09-28T06:05:41.090Z,58.65
2022-09-28T06:08:10.306Z,59.38
2022-09-28T06:10:37.238Z,58.92
2022-09-28T06:13:04.653Z,58.85
2022-09-28T06:15:34.407Z,59.02
2022-09-28T06:18:06.251Z,58.88
2022-09-28T06:20:35.951Z,58.66
2022-09-28T06:23:02.766Z,58.86
2022-09-28T06:25:29.748Z,58.57
2022-09-28T06:28:04.522Z,58.40
2022-09-28T06:30:33.059Z,58.24
2022-09-28T06:33:00.866Z,58.13
2022-09-28T06:35:30.338Z,58.34
2022-09-28T06:37:58.249Z,58.44
2022-09-28T06:40:25.514Z,58.42
2022-09-28T06:43:00.093Z,58.42
2022-09-28T06:45:28.136Z,58.11
2022-09-28T06:47:59.030Z,58.39
2022-09-28T06:50:27.184Z,58.16
2022-09-28T06:52:54.759Z,58.03
2022-09-28T06:55:21.887Z,58.25
2022-09-28T06:57:55.628Z,58.06
2022-09-28T07:00:22.714Z,57.92
2022-09-28T07:02:49.502Z,57.88
2022-09-28T07:05:16.415Z,57.66
2022-09-28T07:07:44.769Z,57.40
2022-09-28T07:10:11.910Z,57.42
2022-09-28T07:12:39.880Z,57.95
2022-09-28T07:15:07.458Z,57.82
2022-09-28T07:17:50.349Z,57.40
2022-09-28T07:20:21.810Z,57.51
2022-09-28T07:22:53.406Z,57.38
2022-09-28T07:25:20.571Z,57.69
2022-09-28T07:27:47.650Z,57.51
2022-09-28T07:30:14.759Z,57.73
2022-09-28T07:32:42.037Z,57.82
2022-09-28T07:35:09.716Z,57.71
2022-09-28T07:37:36.783Z,57.39
2022-09-28T07:40:25.455Z,57.33
2022-09-28T07:42:52.775Z,57.58
2022-09-28T07:45:25.665Z,56.94
2022-09-28T07:47:58.457Z,56.81
2022-09-28T07:50:25.639Z,57.09
2022-09-28T07:52:52.385Z,56.72
2022-09-28T07:55:19.184Z,56.70
2022-09-28T07:57:48.368Z,56.66
2022-09-28T08:00:15.746Z,56.04
2022-09-28T08:02:42.742Z,56.06
2022-09-28T08:05:10.119Z,55.83
2022-09-28T08:07:38.333Z,55.73
2022-09-28T08:10:05.654Z,56.23
2022-09-28T08:12:33.421Z,55.88
2022-09-28T08:15:00.230Z,55.56
2022-09-28T08:17:27.132Z,55.73
2022-09-28T08:20:12.601Z,56.11
2022-09-28T08:22:39.932Z,55.29
2022-09-28T08:25:07.555Z,55.03
2022-09-28T08:27:34.375Z,54.59
2022-09-28T08:30:01.162Z,54.53
2022-09-28T08:32:29.794Z,54.75
2022-09-28T08:34:56.587Z,54.43
2022-09-28T08:37:23.342Z,54.61
2022-09-28T08:39:50.437Z,54.43
2022-09-28T08:42:30.743Z,54.41
2022-09-28T08:45:00.348Z,54.48
2022-09-28T08:47:53.068Z,54.50
2022-09-28T08:50:24.263Z,53.82
2022-09-28T08:52:54.311Z,54.11
2022-09-28T08:55:39.560Z,54.40
2022-09-28T08:58:14.440Z,53.95
2022-09-28T09:00:49.341Z,53.76
2022-09-28T09:03:34.438Z,54.01
2022-09-28T09:06:18.499Z,53.90
2022-09-28T09:09:11.206Z,53.68
2022-09-28T09:12:03.483Z,53.14
2022-09-28T09:14:59.632Z,53.44
2022-09-28T09:17:52.026Z,53.44
2022-09-28T09:20:33.932Z,52.76
2022-09-28T09:23:01.869Z,52.60
2022-09-28T09:25:53.213Z,52.80
2022-09-28T09:28:29.586Z,52.72
2022-09-28T09:31:02.674Z,52.51
2022-09-28T09:34:00.359Z,52.00
2022-09-28T09:36:33.398Z,51.96
2022-09-28T09:39:26.759Z,51.66
2022-09-28T09:42:12.385Z,51.63
2022-09-28T09:44:42.588Z,51.55
2022-09-28T09:47:15.043Z,51.44
2022-09-28T09:50:05.496Z,51.05
2022-09-28T09:52:54.954Z,51.15
2022-09-28T09:55:30.068Z,51.10
2022-09-28T09:58:33.171Z,51.44
2022-09-28T10:01:07.197Z,51.06
2022-09-28T10:03:35.021Z,50.01
2022-09-28T10:06:05.146Z,50.56
2022-09-28T10:08:34.746Z,49.92
2022-09-28T10:11:07.623Z,50.14
2022-09-28T10:13:35.096Z,50.47
2022-09-28T10:16:02.109Z,50.09
2022-09-28T10:18:28.980Z,50.00
2022-09-28T10:20:56.105Z,49.72
2022-09-28T10:23:28.399Z,49.26
2022-09-28T10:25:59.497Z,48.63
2022-09-28T10:28:50.817Z,49.54
2022-09-28T10:31:35.992Z,49.08
2022-09-28T10:34:04.528Z,48.32
2022-09-28T10:36:38.329Z,48.63
2022-09-28T10:39:06.100Z,48.51
2022-09-28T10:41:32.940Z,48.94
2022-09-28T10:44:08.892Z,48.74
2022-09-28T10:46:36.281Z,48.86
2022-09-28T10:49:05.000Z,48.78
2022-09-28T10:51:51.824Z,48.10
2022-09-28T10:54:19.938Z,47.85
2022-09-28T10:56:47.204Z,47.31
2022-09-28T10:59:43.462Z,47.37
2022-09-28T11:02:13.310Z,47.59
2022-09-28T11:04:42.015Z,47.76
2022-09-28T11:07:19.333Z,48.32
2022-09-28T11:09:49.525Z,48.10
2022-09-28T11:12:38.328Z,48.24
2022-09-28T11:15:06.548Z,48.63
2022-09-28T11:17:38.571Z,48.29
2022-09-28T11:20:27.449Z,47.93
2022-09-28T11:22:56.804Z,48.09
2022-09-28T11:25:28.215Z,47.47
2022-09-28T11:28:02.099Z,47.36
2022-09-28T11:30:45.994Z,47.43
2022-09-28T11:33:37.219Z,47.76
2022-09-28T11:36:13.217Z,47.52
2022-09-28T11:38:55.297Z,47.70
2022-09-28T11:41:28.557Z,47.71
2022-09-28T11:44:01.667Z,47.73
2022-09-28T11:47:06.217Z,46.69
2022-09-28T11:49:40.131Z,47.68
2022-09-28T11:52:12.480Z,47.52
2022-09-28T11:54:50.020Z,47.16
2022-09-28T11:57:20.840Z,47.87
2022-09-28T11:59:52.080Z,48.34
2022-09-28T12:02:27.795Z,47.96
2022-09-28T12:05:01.063Z,48.08
2022-09-28T12:07:44.721Z,48.46
2022-09-28T12:10:50.897Z,48.02
2022-09-28T12:13:19.559Z,48.33
2022-09-28T12:16:20.050Z,48.01
2022-09-28T12:21:37.631Z,47.75
2022-09-28T12:24:29.434Z,48.21
2022-09-28T12:27:12.953Z,48.31
2022-09-28T12:30:00.291Z,48.28
2022-09-28T12:32:36.229Z,47.94
2022-09-28T12:35:03.696Z,48.14
2022-09-28T12:37:33.583Z,47.83
2022-09-28T12:40:20.645Z,47.73
2022-09-28T12:43:17.657Z,48.08
2022-09-28T12:46:15.569Z,48.18
2022-09-28T12:49:43.635Z,47.55
2022-09-28T12:51:49.607Z,47.55
2022-09-28T12:54:34.493Z,47.75
2022-09-28T12:57:29.985Z,47.57
2022-09-28T13:00:03.089Z,47.08
2022-09-28T13:03:07.069Z,47.27
2022-09-28T13:05:59.042Z,47.78
2022-09-28T13:08:34.738Z,47.95
2022-09-28T13:11:18.233Z,47.89
2022-09-28T13:13:58.160Z,47.35
2022-09-28T13:16:31.445Z,47.67
2022-09-28T13:19:20.628Z,47.83
2022-09-28T13:22:15.168Z,47.70
2022-09-28T13:24:44.272Z,47.71
2022-09-28T13:27:17.424Z,47.98
2022-09-28T13:29:44.394Z,47.96
2022-09-28T13:32:12.655Z,47.40
2022-09-28T13:34:39.986Z,47.95
2022-09-28T13:37:21.947Z,47.43
2022-09-28T13:39:52.867Z,47.24
2022-09-28T13:42:22.766Z,47.28
2022-09-28T13:44:59.472Z,47.97
2022-09-28T13:47:31.896Z,47.25
2022-09-28T13:50:25.715Z,47.68
2022-09-28T13:53:02.358Z,47.68
2022-09-28T13:55:32.936Z,47.71
2022-09-28T13:58:15.080Z,48.27
2022-09-28T14:00:56.728Z,47.79
2022-09-28T14:03:46.146Z,47.97
2022-09-28T14:06:30.359Z,47.64
2022-09-28T14:09:09.961Z,47.84
2022-09-28T14:11:36.913Z,47.81
2022-09-28T14:14:13.948Z,47.88
2022-09-28T14:16:41.465Z,47.34
2022-09-28T14:19:44.147Z,47.57
2022-09-28T14:22:17.646Z,47.87
2022-09-28T14:24:54.801Z,47.83
2022-09-28T14:27:37.850Z,48.20
2022-09-28T14:30:13.860Z,48.09
2022-09-28T14:32:42.902Z,48.42
2022-09-28T14:35:39.304Z,48.22
2022-09-28T14:38:38.145Z,48.29
2022-09-28T14:41:14.956Z,48.23
2022-09-28T14:43:44.867Z,48.10
2022-09-28T14:46:12.351Z,48.54
2022-09-28T14:48:58.228Z,48.72
2022-09-28T14:51:26.308Z,48.67
2022-09-28T14:53:54.697Z,48.37
2022-09-28T14:56:21.876Z,48.42
2022-09-28T14:58:53.416Z,48.18
2022-09-28T15:01:20.941Z,48.90
2022-09-28T15:03:48.868Z,50.27
2022-09-28T15:06:16.270Z,50.08
2022-09-28T15:08:43.024Z,49.76
2022-09-28T15:11:18.264Z,49.83
2022-09-28T15:13:45.432Z,50.63
2022-09-28T15:16:18.911Z,50.17
2022-09-28T15:19:18.773Z,50.76
2022-09-28T15:21:47.772Z,50.56
2022-09-28T15:24:33.964Z,50.57
2022-09-28T15:27:03.209Z,50.91
2022-09-28T15:29:33.423Z,51.06
2022-09-28T15:32:00.741Z,50.94
2022-09-28T15:34:52.001Z,50.72
2022-09-28T15:37:27.540Z,50.56
2022-09-28T15:39:54.544Z,51.02
2022-09-28T15:42:22.575Z,51.00
2022-09-28T15:45:23.006Z,50.67
2022-09-28T15:47:50.116Z,51.21
2022-09-28T15:50:30.492Z,50.49
2022-09-28T15:53:00.872Z,50.90
2022-09-28T15:55:32.487Z,51.43
2022-09-28T15:58:27.466Z,50.59
2022-09-28T16:01:18.414Z,50.68
2022-09-28T16:03:45.519Z,50.52
2022-09-28T16:06:12.326Z,50.97
2022-09-28T16:08:42.045Z,50.99
2022-09-28T16:11:24.239Z,50.80
2022-09-28T16:14:02.576Z,50.44
2022-09-28T16:16:31.080Z,50.61
2022-09-28T16:19:00.776Z,51.06
2022-09-28T16:21:46.716Z,50.71
2022-09-28T16:24:33.533Z,50.96
2022-09-28T16:27:04.800Z,50.98
2022-09-28T16:29:42.052Z,51.17
2022-09-28T16:32:33.620Z,51.08
2022-09-28T16:35:13.004Z,50.81
2022-09-28T16:37:43.322Z,51.59
2022-09-28T16:40:10.833Z,51.80
2022-09-28T16:42:44.402Z,51.68
2022-09-28T16:45:21.678Z,52.23
2022-09-28T16:47:52.984Z,51.28
2022-09-28T16:50:21.097Z,51.63
2022-09-28T16:53:08.625Z,52.30
2022-09-28T16:55:40.635Z,52.12
2022-09-28T16:58:08.193Z,51.98
2022-09-28T17:00:35.061Z,52.29
2022-09-28T17:03:02.304Z,52.29
2022-09-28T17:05:29.503Z,52.05
2022-09-28T17:08:03.438Z,52.24
2022-09-28T17:10:56.157Z,51.89
2022-09-28T17:13:33.286Z,52.30
2022-09-28T17:16:02.894Z,51.87
2022-09-28T17:18:31.933Z,52.37
2022-09-28T17:21:01.334Z,52.26
2022-09-28T17:23:28.384Z,52.26
2022-09-28T17:25:55.689Z,51.33
2022-09-28T17:28:24.304Z,51.80
2022-09-28T17:30:51.486Z,52.29
2022-09-28T17:33:18.447Z,52.00
2022-09-28T17:35:45.292Z,51.67
2022-09-28T17:38:13.194Z,51.95
2022-09-28T17:40:40.281Z,51.79
2022-09-28T17:43:07.298Z,51.90
2022-09-28T17:45:39.074Z,52.14
2022-09-28T17:48:16.219Z,52.21
2022-09-28T17:50:46.423Z,51.90
2022-09-28T17:53:13.905Z,52.55
2022-09-28T17:55:40.910Z,52.01
2022-09-28T17:58:18.603Z,52.08
2022-09-28T18:00:46.043Z,52.40
2022-09-28T18:03:21.291Z,52.49
2022-09-28T18:06:10.972Z,52.07
2022-09-28T18:08:37.998Z,52.02
2022-09-28T18:11:04.993Z,52.58
2022-09-28T18:13:31.795Z,52.39
2022-09-28T18:15:58.943Z,52.40
2022-09-28T18:18:25.877Z,52.35
2022-09-28T18:20:52.793Z,52.44
2022-09-28T18:23:19.954Z,52.19
2022-09-28T18:25:47.141Z,52.10
2022-09-28T18:28:13.963Z,52.36
2022-09-28T18:30:42.797Z,52.37
2022-09-28T18:33:09.974Z,52.40
2022-09-28T18:35:36.805Z,52.79
2022-09-28T18:38:05.353Z,52.43
2022-09-28T18:40:35.352Z,52.74
2022-09-28T18:43:02.914Z,52.50
2022-09-28T18:45:30.703Z,52.47
2022-09-28T18:47:57.772Z,52.81
2022-09-28T18:50:24.533Z,52.73
2022-09-28T18:52:51.626Z,52.57
2022-09-28T18:55:19.072Z,52.57
2022-09-28T18:57:46.779Z,52.77
2022-09-28T19:00:15.210Z,53.02
2022-09-28T19:02:42.270Z,52.55
2022-09-28T19:05:09.667Z,52.50
2022-09-28T19:07:36.948Z,52.96
2022-09-28T19:10:04.169Z,53.01
2022-09-28T19:12:32.125Z,53.03
2022-09-28T19:14:59.777Z,53.08
2022-09-28T19:17:26.684Z,53.06
2022-09-28T19:19:53.518Z,53.35
2022-09-28T19:22:20.588Z,53.18
2022-09-28T19:24:47.398Z,53.28
2022-09-28T19:27:14.260Z,53.19
2022-09-28T19:29:41.280Z,53.25
2022-09-28T19:32:08.078Z,53.82
2022-09-28T19:34:34.957Z,53.13
2022-09-28T19:37:03.901Z,53.52
2022-09-28T19:39:31.570Z,53.36
2022-09-28T19:41:59.799Z,53.38
2022-09-28T19:44:28.188Z,53.99
2022-09-28T19:47:00.381Z,53.83
2022-09-28T19:49:27.646Z,53.84
2022-09-28T19:52:14.930Z,53.73
2022-09-28T19:54:55.307Z,53.58
2022-09-28T19:57:24.724Z,53.79
2022-09-28T19:59:53.828Z,53.61
2022-09-28T20:02:22.713Z,53.87
2022-09-28T20:04:49.526Z,53.84
2022-09-28T20:07:16.609Z,53.90
2022-09-28T20:09:43.468Z,53.65
2022-09-28T20:12:10.227Z,53.76
2022-09-28T20:14:40.145Z,54.01
2022-09-28T20:17:07.557Z,53.98
2022-09-28T20:19:35.074Z,53.97
2022-09-28T20:22:03.103Z,54.03
2022-09-28T20:24:31.376Z,54.02
2022-09-28T20:26:58.572Z,53.87
2022-09-28T20:29:25.673Z,53.91
2022-09-28T20:31:52.566Z,53.93
2022-09-28T20:34:19.386Z,53.74
2022-09-28T20:36:46.400Z,53.76
2022-09-28T20:39:13.450Z,53.82
2022-09-28T20:41:40.340Z,54.11
2022-09-28T20:44:07.612Z,54.16
2022-09-28T20:46:36.347Z,54.01
2022-09-28T20:49:04.450Z,53.91
2022-09-28T20:51:31.592Z,53.70
2022-09-28T20:53:58.861Z,54.04
2022-09-28T20:56:37.705Z,53.86
2022-09-28T20:59:08.351Z,53.93
2022-09-28T21:01:35.292Z,54.17
2022-09-28T21:04:03.631Z,53.91
2022-09-28T21:06:33.063Z,53.90
2022-09-28T21:08:59.870Z,54.07
2022-09-28T21:11:28.084Z,54.03
2022-09-28T21:13:56.631Z,54.06
2022-09-28T21:16:23.390Z,53.76
2022-09-28T21:18:50.176Z,53.82
2022-09-28T21:21:18.528Z,54.11
2022-09-28T21:23:45.601Z,54.25
2022-09-28T21:26:14.345Z,54.34
2022-09-28T21:28:41.485Z,54.00
2022-09-28T21:31:10.235Z,54.22
2022-09-28T21:33:37.279Z,54.05
2022-09-28T21:36:05.596Z,53.87
2022-09-28T21:38:32.500Z,53.94
2022-09-28T21:40:59.533Z,54.24
2022-09-28T21:43:27.423Z,53.63
2022-09-28T21:45:54.769Z,54.16
2022-09-28T21:48:22.564Z,54.09
2022-09-28T21:50:56.975Z,53.92
2022-09-28T21:53:29.043Z,53.95
2022-09-28T21:55:57.973Z,54.20
2022-09-28T21:58:26.276Z,54.07
2022-09-28T22:01:07.626Z,54.13
2022-09-28T22:03:35.634Z,54.10
2022-09-28T22:06:03.314Z,53.89
2022-09-28T22:08:30.180Z,54.13
2022-09-28T22:11:11.718Z,53.92
2022-09-28T22:13:44.683Z,54.14
2022-09-28T22:16:12.131Z,53.99
2022-09-28T22:18:39.022Z,54.19
2022-09-28T22:21:08.346Z,53.93
2022-09-28T22:23:36.064Z,54.00
2022-09-28T22:26:12.978Z,54.17
2022-09-28T22:28:40.322Z,54.28
2022-09-28T22:31:07.139Z,54.23
2022-09-28T22:33:35.103Z,54.13
2022-09-28T22:36:02.202Z,54.13
2022-09-28T22:38:31.870Z,54.44
2022-09-28T22:40:58.794Z,54.09
2022-09-28T22:43:26.333Z,54.17
2022-09-28T22:46:09.000Z,54.07
2022-09-28T22:48:36.055Z,54.21
2022-09-28T22:51:03.294Z,54.00
2022-09-28T22:53:30.241Z,54.12
2022-09-28T22:55:57.680Z,54.14
2022-09-28T22:58:24.660Z,54.29
2022-09-28T23:00:51.417Z,54.22
2022-09-28T23:03:18.454Z,54.17
2022-09-28T23:05:54.840Z,54.48
2022-09-28T23:08:22.132Z,54.47
2022-09-28T23:10:49.156Z,54.37
2022-09-28T23:13:16.060Z,54.21
2022-09-28T23:15:43.182Z,54.35
2022-09-28T23:18:10.171Z,54.27
2022-09-28T23:20:36.987Z,54.15
2022-09-28T23:23:04.004Z,54.31
2022-09-28T23:25:31.072Z,54.20
2022-09-28T23:27:57.863Z,54.52
2022-09-28T23:30:24.994Z,54.25
2022-09-28T23:32:53.197Z,54.40
2022-09-28T23:35:20.152Z,54.30
2022-09-28T23:37:50.721Z,54.64
2022-09-28T23:40:17.678Z,54.29
2022-09-28T23:42:44.491Z,54.53
2022-09-28T23:45:11.570Z,54.58
2022-09-28T23:47:38.593Z,54.54
2022-09-28T23:50:05.991Z,54.75
2022-09-28T23:52:33.302Z,54.39
2022-09-28T23:55:00.093Z,54.87
2022-09-28T23:57:26.939Z,54.78
2022-09-28T23:59:53.982Z,54.70
